sensor_id;sensor_type;location;lat;lon;timestamp;temperature;humidity
51902;DHT22;37929;53.218;6.548;2023-08-01T00:01:35;16.50;99.90
51902;DHT22;37929;53.218;6.548;2023-08-01T00:04:01;16.50;99.90
51902;DHT22;37929;53.218;6.548;2023-08-01T00:06:27;16.50;99.90
51902;DHT22;37929;53.218;6.548;2023-08-01T00:08:52;16.50;99.90
51902;DHT22;37929;53.218;6.548;2023-08-01T00:11:18;16.50;99.90
51902;DHT22;37929;53.218;6.548;2023-08-01T00:13:44;16.50;99.90
51902;DHT22;37929;53.218;6.548;2023-08-01T00:16:09;16.40;99.90
51902;DHT22;37929;53.218;6.548;2023-08-01T00:18:35;16.40;99.90
51902;DHT22;37929;53.218;6.548;2023-08-01T00:21:02;16.40;99.90
51902;DHT22;37929;53.218;6.548;2023-08-01T00:23:28;16.40;99.90
51902;DHT22;37929;53.218;6.548;2023-08-01T00:25:53;16.40;99.90
51902;DHT22;37929;53.218;6.548;2023-08-01T00:28:21;16.40;99.90
51902;DHT22;37929;53.218;6.548;2023-08-01T00:30:46;16.40;99.90
51902;DHT22;37929;53.218;6.548;2023-08-01T00:33:12;16.40;99.90
51902;DHT22;37929;53.218;6.548;2023-08-01T00:35:38;16.40;99.90
51902;DHT22;37929;53.218;6.548;2023-08-01T00:38:04;16.40;99.90
51902;DHT22;37929;53.218;6.548;2023-08-01T00:40:31;16.40;99.90
51902;DHT22;37929;53.218;6.548;2023-08-01T00:42:57;16.40;99.90
51902;DHT22;37929;53.218;6.548;2023-08-01T00:45:23;16.40;99.90
51902;DHT22;37929;53.218;6.548;2023-08-01T00:47:52;16.30;99.90
51902;DHT22;37929;53.218;6.548;2023-08-01T00:50:18;16.30;99.90
51902;DHT22;37929;53.218;6.548;2023-08-01T00:52:49;16.30;99.90
51902;DHT22;37929;53.218;6.548;2023-08-01T00:55:16;16.30;99.90
51902;DHT22;37929;53.218;6.548;2023-08-01T00:57:42;16.30;99.90
51902;DHT22;37929;53.218;6.548;2023-08-01T01:00:08;16.20;99.90
51902;DHT22;37929;53.218;6.548;2023-08-01T01:02:35;16.20;99.90
51902;DHT22;37929;53.218;6.548;2023-08-01T01:05:02;16.20;99.90
51902;DHT22;37929;53.218;6.548;2023-08-01T01:07:29;16.20;99.90
51902;DHT22;37929;53.218;6.548;2023-08-01T01:09:56;16.20;99.90
51902;DHT22;37929;53.218;6.548;2023-08-01T01:12:21;16.20;99.90
51902;DHT22;37929;53.218;6.548;2023-08-01T01:14:47;16.10;99.90
51902;DHT22;37929;53.218;6.548;2023-08-01T01:17:13;16.10;99.90
51902;DHT22;37929;53.218;6.548;2023-08-01T01:19:39;16.10;99.90
51902;DHT22;37929;53.218;6.548;2023-08-01T01:22:07;16.00;99.90
51902;DHT22;37929;53.218;6.548;2023-08-01T01:24:35;16.00;99.90
51902;DHT22;37929;53.218;6.548;2023-08-01T01:27:01;16.00;99.90
51902;DHT22;37929;53.218;6.548;2023-08-01T01:29:30;15.90;99.90
51902;DHT22;37929;53.218;6.548;2023-08-01T01:31:57;15.90;99.90
51902;DHT22;37929;53.218;6.548;2023-08-01T01:34:27;15.90;99.90
51902;DHT22;37929;53.218;6.548;2023-08-01T01:36:54;15.90;99.90
51902;DHT22;37929;53.218;6.548;2023-08-01T01:39:20;15.80;99.90
51902;DHT22;37929;53.218;6.548;2023-08-01T01:41:46;15.80;99.90
51902;DHT22;37929;53.218;6.548;2023-08-01T01:44:12;15.80;99.90
51902;DHT22;37929;53.218;6.548;2023-08-01T01:46:37;15.80;99.90
51902;DHT22;37929;53.218;6.548;2023-08-01T01:49:03;15.80;99.90
51902;DHT22;37929;53.218;6.548;2023-08-01T01:51:30;15.80;99.90
51902;DHT22;37929;53.218;6.548;2023-08-01T01:53:56;15.70;99.90
51902;DHT22;37929;53.218;6.548;2023-08-01T01:56:22;15.70;99.90
51902;DHT22;37929;53.218;6.548;2023-08-01T01:58:48;15.70;99.90
51902;DHT22;37929;53.218;6.548;2023-08-01T02:01:14;15.70;99.90
51902;DHT22;37929;53.218;6.548;2023-08-01T02:03:39;15.60;99.90
51902;DHT22;37929;53.218;6.548;2023-08-01T02:06:05;15.70;99.90
51902;DHT22;37929;53.218;6.548;2023-08-01T02:08:31;15.60;99.90
51902;DHT22;37929;53.218;6.548;2023-08-01T02:10:57;15.60;99.90
51902;DHT22;37929;53.218;6.548;2023-08-01T02:13:28;15.60;99.90
51902;DHT22;37929;53.218;6.548;2023-08-01T02:15:54;15.50;99.90
51902;DHT22;37929;53.218;6.548;2023-08-01T02:18:20;15.50;99.90
51902;DHT22;37929;53.218;6.548;2023-08-01T02:20:45;15.50;99.90
51902;DHT22;37929;53.218;6.548;2023-08-01T02:23:11;15.50;99.90
51902;DHT22;37929;53.218;6.548;2023-08-01T02:25:40;15.50;99.90
51902;DHT22;37929;53.218;6.548;2023-08-01T02:28:07;15.50;99.90
51902;DHT22;37929;53.218;6.548;2023-08-01T02:30:34;15.40;99.90
51902;DHT22;37929;53.218;6.548;2023-08-01T02:33:01;15.40;99.90
51902;DHT22;37929;53.218;6.548;2023-08-01T02:35:27;15.30;99.90
51902;DHT22;37929;53.218;6.548;2023-08-01T02:37:54;15.30;99.90
51902;DHT22;37929;53.218;6.548;2023-08-01T02:40:20;15.30;99.90
51902;DHT22;37929;53.218;6.548;2023-08-01T02:42:46;15.30;99.90
51902;DHT22;37929;53.218;6.548;2023-08-01T02:45:11;15.30;99.90
51902;DHT22;37929;53.218;6.548;2023-08-01T02:47:37;15.30;99.90
51902;DHT22;37929;53.218;6.548;2023-08-01T02:50:03;15.30;99.90
51902;DHT22;37929;53.218;6.548;2023-08-01T02:52:32;15.30;99.90
51902;DHT22;37929;53.218;6.548;2023-08-01T02:54:58;15.30;99.90
51902;DHT22;37929;53.218;6.548;2023-08-01T02:57:24;15.30;99.90
51902;DHT22;37929;53.218;6.548;2023-08-01T02:59:50;15.30;99.90
51902;DHT22;37929;53.218;6.548;2023-08-01T03:02:15;15.30;99.90
51902;DHT22;37929;53.218;6.548;2023-08-01T03:04:41;15.30;99.90
51902;DHT22;37929;53.218;6.548;2023-08-01T03:07:07;15.30;99.90
51902;DHT22;37929;53.218;6.548;2023-08-01T03:09:33;15.30;99.90
51902;DHT22;37929;53.218;6.548;2023-08-01T03:11:59;15.30;99.90
51902;DHT22;37929;53.218;6.548;2023-08-01T03:14:25;15.30;99.90
51902;DHT22;37929;53.218;6.548;2023-08-01T03:17:09;15.30;99.90
51902;DHT22;37929;53.218;6.548;2023-08-01T03:19:35;15.30;99.90
51902;DHT22;37929;53.218;6.548;2023-08-01T03:22:01;15.30;99.90
51902;DHT22;37929;53.218;6.548;2023-08-01T03:24:26;15.30;99.90
51902;DHT22;37929;53.218;6.548;2023-08-01T03:26:52;15.30;99.90
51902;DHT22;37929;53.218;6.548;2023-08-01T03:29:18;15.30;99.90
51902;DHT22;37929;53.218;6.548;2023-08-01T03:31:44;15.30;99.90
51902;DHT22;37929;53.218;6.548;2023-08-01T03:34:10;15.30;99.90
51902;DHT22;37929;53.218;6.548;2023-08-01T03:36:35;15.30;99.90
51902;DHT22;37929;53.218;6.548;2023-08-01T03:39:02;15.30;99.90
51902;DHT22;37929;53.218;6.548;2023-08-01T03:41:29;15.30;99.90
51902;DHT22;37929;53.218;6.548;2023-08-01T03:43:55;15.30;99.90
51902;DHT22;37929;53.218;6.548;2023-08-01T03:46:21;15.30;99.90
51902;DHT22;37929;53.218;6.548;2023-08-01T03:48:46;15.30;99.90
51902;DHT22;37929;53.218;6.548;2023-08-01T03:51:12;15.30;99.90
51902;DHT22;37929;53.218;6.548;2023-08-01T03:53:40;15.30;99.90
51902;DHT22;37929;53.218;6.548;2023-08-01T03:56:07;15.30;99.90
51902;DHT22;37929;53.218;6.548;2023-08-01T03:58:33;15.30;99.90
51902;DHT22;37929;53.218;6.548;2023-08-01T04:00:58;15.30;99.90
51902;DHT22;37929;53.218;6.548;2023-08-01T04:03:25;15.30;99.90
51902;DHT22;37929;53.218;6.548;2023-08-01T04:05:50;15.30;99.90
51902;DHT22;37929;53.218;6.548;2023-08-01T04:08:16;15.30;99.90
51902;DHT22;37929;53.218;6.548;2023-08-01T04:10:42;15.40;99.90
51902;DHT22;37929;53.218;6.548;2023-08-01T04:13:08;15.30;99.90
51902;DHT22;37929;53.218;6.548;2023-08-01T04:15:33;15.30;99.90
51902;DHT22;37929;53.218;6.548;2023-08-01T04:17:59;15.30;99.90
51902;DHT22;37929;53.218;6.548;2023-08-01T04:20:25;15.30;99.90
51902;DHT22;37929;53.218;6.548;2023-08-01T04:22:51;15.30;99.90
51902;DHT22;37929;53.218;6.548;2023-08-01T04:25:17;15.30;99.90
51902;DHT22;37929;53.218;6.548;2023-08-01T04:27:43;15.30;99.90
51902;DHT22;37929;53.218;6.548;2023-08-01T04:30:09;15.30;99.90
51902;DHT22;37929;53.218;6.548;2023-08-01T04:32:35;15.30;99.90
51902;DHT22;37929;53.218;6.548;2023-08-01T04:35:00;15.30;99.90
51902;DHT22;37929;53.218;6.548;2023-08-01T04:37:34;15.30;99.90
51902;DHT22;37929;53.218;6.548;2023-08-01T04:39:59;15.30;99.90
51902;DHT22;37929;53.218;6.548;2023-08-01T04:42:25;15.20;99.90
51902;DHT22;37929;53.218;6.548;2023-08-01T04:44:51;15.20;99.90
51902;DHT22;37929;53.218;6.548;2023-08-01T04:47:18;15.20;99.90
51902;DHT22;37929;53.218;6.548;2023-08-01T04:49:44;15.20;99.90
51902;DHT22;37929;53.218;6.548;2023-08-01T04:52:10;15.20;99.90
51902;DHT22;37929;53.218;6.548;2023-08-01T04:54:36;15.20;99.90
51902;DHT22;37929;53.218;6.548;2023-08-01T04:57:02;15.20;99.90
51902;DHT22;37929;53.218;6.548;2023-08-01T04:59:27;15.20;99.90
51902;DHT22;37929;53.218;6.548;2023-08-01T05:01:53;15.20;99.90
51902;DHT22;37929;53.218;6.548;2023-08-01T05:04:19;15.20;99.90
51902;DHT22;37929;53.218;6.548;2023-08-01T05:06:45;15.20;99.90
51902;DHT22;37929;53.218;6.548;2023-08-01T05:09:10;15.20;99.90
51902;DHT22;37929;53.218;6.548;2023-08-01T05:11:36;15.20;99.90
51902;DHT22;37929;53.218;6.548;2023-08-01T05:14:02;15.20;99.90
51902;DHT22;37929;53.218;6.548;2023-08-01T05:16:27;15.30;99.90
51902;DHT22;37929;53.218;6.548;2023-08-01T05:18:53;15.30;99.90
51902;DHT22;37929;53.218;6.548;2023-08-01T05:21:19;15.30;99.90
51902;DHT22;37929;53.218;6.548;2023-08-01T05:23:45;15.40;99.90
51902;DHT22;37929;53.218;6.548;2023-08-01T05:26:11;15.40;99.90
51902;DHT22;37929;53.218;6.548;2023-08-01T05:28:37;15.40;99.90
51902;DHT22;37929;53.218;6.548;2023-08-01T05:31:03;15.40;99.90
51902;DHT22;37929;53.218;6.548;2023-08-01T05:33:29;15.40;99.90
51902;DHT22;37929;53.218;6.548;2023-08-01T05:35:55;15.40;99.90
51902;DHT22;37929;53.218;6.548;2023-08-01T05:38:21;15.40;99.90
51902;DHT22;37929;53.218;6.548;2023-08-01T05:40:47;15.40;99.90
51902;DHT22;37929;53.218;6.548;2023-08-01T05:43:13;15.30;99.90
51902;DHT22;37929;53.218;6.548;2023-08-01T05:45:38;15.30;99.90
51902;DHT22;37929;53.218;6.548;2023-08-01T05:48:04;15.30;99.90
51902;DHT22;37929;53.218;6.548;2023-08-01T05:50:30;15.30;99.90
51902;DHT22;37929;53.218;6.548;2023-08-01T05:52:56;15.30;99.90
51902;DHT22;37929;53.218;6.548;2023-08-01T05:55:22;15.30;99.90
51902;DHT22;37929;53.218;6.548;2023-08-01T05:57:48;15.30;99.90
51902;DHT22;37929;53.218;6.548;2023-08-01T06:00:18;15.30;99.90
51902;DHT22;37929;53.218;6.548;2023-08-01T06:02:46;15.30;99.90
51902;DHT22;37929;53.218;6.548;2023-08-01T06:05:12;15.30;99.90
51902;DHT22;37929;53.218;6.548;2023-08-01T06:07:38;15.30;99.90
51902;DHT22;37929;53.218;6.548;2023-08-01T06:10:04;15.30;99.90
51902;DHT22;37929;53.218;6.548;2023-08-01T06:12:30;15.30;99.90
51902;DHT22;37929;53.218;6.548;2023-08-01T06:14:55;15.30;99.90
51902;DHT22;37929;53.218;6.548;2023-08-01T06:17:21;15.30;99.90
51902;DHT22;37929;53.218;6.548;2023-08-01T06:19:47;15.30;99.90
51902;DHT22;37929;53.218;6.548;2023-08-01T06:22:13;15.30;99.90
51902;DHT22;37929;53.218;6.548;2023-08-01T06:24:39;15.30;99.90
51902;DHT22;37929;53.218;6.548;2023-08-01T06:27:05;15.30;99.90
51902;DHT22;37929;53.218;6.548;2023-08-01T06:29:31;15.30;99.90
51902;DHT22;37929;53.218;6.548;2023-08-01T06:31:57;15.30;99.90
51902;DHT22;37929;53.218;6.548;2023-08-01T06:34:23;15.30;99.90
51902;DHT22;37929;53.218;6.548;2023-08-01T06:36:50;15.30;99.90
51902;DHT22;37929;53.218;6.548;2023-08-01T06:39:16;15.30;99.90
51902;DHT22;37929;53.218;6.548;2023-08-01T06:41:42;15.30;99.90
51902;DHT22;37929;53.218;6.548;2023-08-01T06:44:08;15.30;99.90
51902;DHT22;37929;53.218;6.548;2023-08-01T06:46:33;15.30;99.90
51902;DHT22;37929;53.218;6.548;2023-08-01T06:48:59;15.30;99.90
51902;DHT22;37929;53.218;6.548;2023-08-01T06:51:25;15.30;99.90
51902;DHT22;37929;53.218;6.548;2023-08-01T06:53:51;15.30;99.90
51902;DHT22;37929;53.218;6.548;2023-08-01T06:56:17;15.30;99.90
51902;DHT22;37929;53.218;6.548;2023-08-01T06:58:43;15.40;99.90
51902;DHT22;37929;53.218;6.548;2023-08-01T07:01:08;15.40;99.90
51902;DHT22;37929;53.218;6.548;2023-08-01T07:03:34;15.40;99.90
51902;DHT22;37929;53.218;6.548;2023-08-01T07:06:02;15.40;99.90
51902;DHT22;37929;53.218;6.548;2023-08-01T07:08:28;15.60;99.90
51902;DHT22;37929;53.218;6.548;2023-08-01T07:10:54;15.60;99.90
51902;DHT22;37929;53.218;6.548;2023-08-01T07:13:21;15.60;99.90
51902;DHT22;37929;53.218;6.548;2023-08-01T07:15:48;15.60;99.90
51902;DHT22;37929;53.218;6.548;2023-08-01T07:18:13;15.60;99.90
51902;DHT22;37929;53.218;6.548;2023-08-01T07:20:39;15.60;99.90
51902;DHT22;37929;53.218;6.548;2023-08-01T07:23:05;15.60;99.90
51902;DHT22;37929;53.218;6.548;2023-08-01T07:25:31;15.60;99.90
51902;DHT22;37929;53.218;6.548;2023-08-01T07:27:59;15.70;99.90
51902;DHT22;37929;53.218;6.548;2023-08-01T07:30:25;15.70;99.90
51902;DHT22;37929;53.218;6.548;2023-08-01T07:32:51;15.70;99.90
51902;DHT22;37929;53.218;6.548;2023-08-01T07:35:17;15.70;99.90
51902;DHT22;37929;53.218;6.548;2023-08-01T07:37:43;15.60;99.90
51902;DHT22;37929;53.218;6.548;2023-08-01T07:40:09;15.60;99.90
51902;DHT22;37929;53.218;6.548;2023-08-01T07:42:35;15.60;99.90
51902;DHT22;37929;53.218;6.548;2023-08-01T07:45:01;15.60;99.90
51902;DHT22;37929;53.218;6.548;2023-08-01T07:47:27;15.60;99.90
51902;DHT22;37929;53.218;6.548;2023-08-01T07:49:53;15.60;99.90
51902;DHT22;37929;53.218;6.548;2023-08-01T07:52:19;15.50;99.90
51902;DHT22;37929;53.218;6.548;2023-08-01T07:54:44;15.50;99.90
51902;DHT22;37929;53.218;6.548;2023-08-01T07:57:10;15.50;99.90
51902;DHT22;37929;53.218;6.548;2023-08-01T07:59:36;15.50;99.90
51902;DHT22;37929;53.218;6.548;2023-08-01T08:02:02;15.60;99.90
51902;DHT22;37929;53.218;6.548;2023-08-01T08:04:28;15.70;99.90
51902;DHT22;37929;53.218;6.548;2023-08-01T08:06:54;15.80;99.90
51902;DHT22;37929;53.218;6.548;2023-08-01T08:09:21;15.80;99.90
51902;DHT22;37929;53.218;6.548;2023-08-01T08:11:48;15.90;99.90
51902;DHT22;37929;53.218;6.548;2023-08-01T08:14:14;16.10;99.90
51902;DHT22;37929;53.218;6.548;2023-08-01T08:16:41;16.10;99.90
51902;DHT22;37929;53.218;6.548;2023-08-01T08:19:07;16.10;99.90
51902;DHT22;37929;53.218;6.548;2023-08-01T08:21:32;16.20;99.90
51902;DHT22;37929;53.218;6.548;2023-08-01T08:23:58;16.10;99.90
51902;DHT22;37929;53.218;6.548;2023-08-01T08:26:25;16.10;99.90
51902;DHT22;37929;53.218;6.548;2023-08-01T08:28:51;16.20;99.90
51902;DHT22;37929;53.218;6.548;2023-08-01T08:31:17;16.10;99.90
51902;DHT22;37929;53.218;6.548;2023-08-01T08:33:43;16.10;99.90
51902;DHT22;37929;53.218;6.548;2023-08-01T08:36:09;16.00;99.90
51902;DHT22;37929;53.218;6.548;2023-08-01T08:38:35;16.00;99.90
51902;DHT22;37929;53.218;6.548;2023-08-01T08:41:13;15.90;99.90
51902;DHT22;37929;53.218;6.548;2023-08-01T08:43:39;15.90;99.90
51902;DHT22;37929;53.218;6.548;2023-08-01T08:46:08;15.80;99.90
51902;DHT22;37929;53.218;6.548;2023-08-01T08:48:35;15.70;99.90
51902;DHT22;37929;53.218;6.548;2023-08-01T08:51:02;15.70;99.90
51902;DHT22;37929;53.218;6.548;2023-08-01T08:53:32;15.60;99.90
51902;DHT22;37929;53.218;6.548;2023-08-01T08:56:01;15.60;99.90
51902;DHT22;37929;53.218;6.548;2023-08-01T08:58:29;15.60;99.90
51902;DHT22;37929;53.218;6.548;2023-08-01T09:00:58;15.60;99.90
51902;DHT22;37929;53.218;6.548;2023-08-01T09:03:26;15.60;99.90
51902;DHT22;37929;53.218;6.548;2023-08-01T09:06:02;15.70;99.90
51902;DHT22;37929;53.218;6.548;2023-08-01T09:08:33;15.70;99.90
51902;DHT22;37929;53.218;6.548;2023-08-01T09:11:00;15.90;99.90
51902;DHT22;37929;53.218;6.548;2023-08-01T09:13:26;16.00;99.90
51902;DHT22;37929;53.218;6.548;2023-08-01T09:15:52;16.10;99.90
51902;DHT22;37929;53.218;6.548;2023-08-01T09:18:18;16.10;99.90
51902;DHT22;37929;53.218;6.548;2023-08-01T09:20:48;16.00;99.90
51902;DHT22;37929;53.218;6.548;2023-08-01T09:23:15;16.10;99.90
51902;DHT22;37929;53.218;6.548;2023-08-01T09:25:41;16.00;99.90
51902;DHT22;37929;53.218;6.548;2023-08-01T09:28:24;16.10;99.90
51902;DHT22;37929;53.218;6.548;2023-08-01T09:30:55;16.10;99.90
51902;DHT22;37929;53.218;6.548;2023-08-01T09:33:22;16.20;99.90
51902;DHT22;37929;53.218;6.548;2023-08-01T09:35:51;16.30;99.90
51902;DHT22;37929;53.218;6.548;2023-08-01T09:38:17;16.40;99.90
51902;DHT22;37929;53.218;6.548;2023-08-01T09:40:44;16.40;99.90
51902;DHT22;37929;53.218;6.548;2023-08-01T09:43:11;16.30;99.90
51902;DHT22;37929;53.218;6.548;2023-08-01T09:45:38;16.40;99.90
51902;DHT22;37929;53.218;6.548;2023-08-01T09:48:27;16.40;99.90
51902;DHT22;37929;53.218;6.548;2023-08-01T09:51:07;16.30;99.90
51902;DHT22;37929;53.218;6.548;2023-08-01T09:53:34;16.30;99.90
51902;DHT22;37929;53.218;6.548;2023-08-01T09:56:01;16.40;99.90
51902;DHT22;37929;53.218;6.548;2023-08-01T09:58:33;16.40;99.90
51902;DHT22;37929;53.218;6.548;2023-08-01T10:01:00;16.50;99.90
51902;DHT22;37929;53.218;6.548;2023-08-01T10:03:30;16.60;99.90
51902;DHT22;37929;53.218;6.548;2023-08-01T10:06:02;16.70;99.90
51902;DHT22;37929;53.218;6.548;2023-08-01T10:08:32;16.80;99.90
51902;DHT22;37929;53.218;6.548;2023-08-01T10:10:59;16.80;99.90
51902;DHT22;37929;53.218;6.548;2023-08-01T10:13:27;16.80;99.90
51902;DHT22;37929;53.218;6.548;2023-08-01T10:15:54;16.80;99.90
51902;DHT22;37929;53.218;6.548;2023-08-01T10:18:20;17.00;99.90
51902;DHT22;37929;53.218;6.548;2023-08-01T10:20:50;17.00;99.90
51902;DHT22;37929;53.218;6.548;2023-08-01T10:23:17;17.10;99.90
51902;DHT22;37929;53.218;6.548;2023-08-01T10:25:43;17.10;99.90
51902;DHT22;37929;53.218;6.548;2023-08-01T10:28:09;17.10;99.90
51902;DHT22;37929;53.218;6.548;2023-08-01T10:30:35;17.00;99.90
51902;DHT22;37929;53.218;6.548;2023-08-01T10:33:01;17.00;99.90
51902;DHT22;37929;53.218;6.548;2023-08-01T10:35:37;16.90;99.90
51902;DHT22;37929;53.218;6.548;2023-08-01T10:38:08;16.80;99.90
51902;DHT22;37929;53.218;6.548;2023-08-01T10:40:41;16.80;99.90
51902;DHT22;37929;53.218;6.548;2023-08-01T10:43:24;16.80;99.90
51902;DHT22;37929;53.218;6.548;2023-08-01T10:46:03;16.90;99.90
51902;DHT22;37929;53.218;6.548;2023-08-01T10:48:29;16.90;99.90
51902;DHT22;37929;53.218;6.548;2023-08-01T10:50:56;16.90;99.90
51902;DHT22;37929;53.218;6.548;2023-08-01T10:53:22;17.00;99.90
51902;DHT22;37929;53.218;6.548;2023-08-01T10:55:48;17.10;99.90
51902;DHT22;37929;53.218;6.548;2023-08-01T10:58:15;17.20;99.90
51902;DHT22;37929;53.218;6.548;2023-08-01T11:00:42;17.20;99.90
51902;DHT22;37929;53.218;6.548;2023-08-01T11:03:08;17.10;99.90
51902;DHT22;37929;53.218;6.548;2023-08-01T11:05:37;16.90;99.90
51902;DHT22;37929;53.218;6.548;2023-08-01T11:08:03;16.80;99.90
51902;DHT22;37929;53.218;6.548;2023-08-01T11:10:31;16.80;99.90
51902;DHT22;37929;53.218;6.548;2023-08-01T11:12:57;16.80;99.90
51902;DHT22;37929;53.218;6.548;2023-08-01T11:15:24;16.80;99.90
51902;DHT22;37929;53.218;6.548;2023-08-01T11:17:51;17.00;99.90
51902;DHT22;37929;53.218;6.548;2023-08-01T11:20:19;17.10;99.90
51902;DHT22;37929;53.218;6.548;2023-08-01T11:25:18;17.30;99.90
51902;DHT22;37929;53.218;6.548;2023-08-01T11:27:44;17.30;99.90
51902;DHT22;37929;53.218;6.548;2023-08-01T11:30:10;17.30;99.90
51902;DHT22;37929;53.218;6.548;2023-08-01T11:32:37;17.30;99.90
51902;DHT22;37929;53.218;6.548;2023-08-01T11:35:04;17.30;99.90
51902;DHT22;37929;53.218;6.548;2023-08-01T11:37:31;17.30;99.90
51902;DHT22;37929;53.218;6.548;2023-08-01T11:39:58;17.40;99.90
51902;DHT22;37929;53.218;6.548;2023-08-01T11:42:25;17.40;99.90
51902;DHT22;37929;53.218;6.548;2023-08-01T11:44:50;17.50;99.90
51902;DHT22;37929;53.218;6.548;2023-08-01T11:47:19;17.50;99.90
51902;DHT22;37929;53.218;6.548;2023-08-01T11:49:49;17.60;99.90
51902;DHT22;37929;53.218;6.548;2023-08-01T11:52:26;17.70;99.90
51902;DHT22;37929;53.218;6.548;2023-08-01T11:54:52;17.80;99.90
51902;DHT22;37929;53.218;6.548;2023-08-01T11:57:20;17.80;99.90
51902;DHT22;37929;53.218;6.548;2023-08-01T11:59:54;17.90;99.90
51902;DHT22;37929;53.218;6.548;2023-08-01T12:02:25;17.90;99.90
51902;DHT22;37929;53.218;6.548;2023-08-01T12:04:53;17.80;99.90
51902;DHT22;37929;53.218;6.548;2023-08-01T12:07:19;17.90;99.90
51902;DHT22;37929;53.218;6.548;2023-08-01T12:09:59;17.80;99.90
51902;DHT22;37929;53.218;6.548;2023-08-01T12:12:30;17.80;99.90
51902;DHT22;37929;53.218;6.548;2023-08-01T12:14:56;17.80;99.90
51902;DHT22;37929;53.218;6.548;2023-08-01T12:17:22;17.80;99.90
51902;DHT22;37929;53.218;6.548;2023-08-01T12:19:48;17.80;99.90
51902;DHT22;37929;53.218;6.548;2023-08-01T12:22:14;17.70;99.90
51902;DHT22;37929;53.218;6.548;2023-08-01T12:24:40;17.70;99.90
51902;DHT22;37929;53.218;6.548;2023-08-01T12:27:10;17.80;99.90
51902;DHT22;37929;53.218;6.548;2023-08-01T12:29:36;18.00;99.90
51902;DHT22;37929;53.218;6.548;2023-08-01T12:32:03;18.10;99.90
51902;DHT22;37929;53.218;6.548;2023-08-01T12:34:29;18.20;99.90
51902;DHT22;37929;53.218;6.548;2023-08-01T12:36:55;18.20;99.90
51902;DHT22;37929;53.218;6.548;2023-08-01T12:39:21;18.30;99.90
51902;DHT22;37929;53.218;6.548;2023-08-01T12:41:47;18.40;99.90
51902;DHT22;37929;53.218;6.548;2023-08-01T12:44:12;18.40;99.90
51902;DHT22;37929;53.218;6.548;2023-08-01T12:46:41;18.40;99.90
51902;DHT22;37929;53.218;6.548;2023-08-01T12:49:07;18.50;99.90
51902;DHT22;37929;53.218;6.548;2023-08-01T12:51:32;18.50;99.90
51902;DHT22;37929;53.218;6.548;2023-08-01T12:53:58;18.60;99.90
51902;DHT22;37929;53.218;6.548;2023-08-01T12:56:24;18.80;99.90
51902;DHT22;37929;53.218;6.548;2023-08-01T12:58:50;19.00;99.90
51902;DHT22;37929;53.218;6.548;2023-08-01T13:01:15;19.20;99.90
51902;DHT22;37929;53.218;6.548;2023-08-01T13:03:41;19.30;99.90
51902;DHT22;37929;53.218;6.548;2023-08-01T13:06:11;19.40;99.90
51902;DHT22;37929;53.218;6.548;2023-08-01T13:08:37;19.50;99.90
51902;DHT22;37929;53.218;6.548;2023-08-01T13:11:10;19.60;99.90
51902;DHT22;37929;53.218;6.548;2023-08-01T13:13:36;19.80;99.90
51902;DHT22;37929;53.218;6.548;2023-08-01T13:16:02;19.80;99.90
51902;DHT22;37929;53.218;6.548;2023-08-01T13:18:29;19.80;99.90
51902;DHT22;37929;53.218;6.548;2023-08-01T13:20:57;19.60;99.90
51902;DHT22;37929;53.218;6.548;2023-08-01T13:23:23;19.40;99.90
51902;DHT22;37929;53.218;6.548;2023-08-01T13:25:49;19.30;99.90
51902;DHT22;37929;53.218;6.548;2023-08-01T13:28:15;19.30;99.90
51902;DHT22;37929;53.218;6.548;2023-08-01T13:30:41;19.20;99.90
51902;DHT22;37929;53.218;6.548;2023-08-01T13:33:06;19.20;99.90
51902;DHT22;37929;53.218;6.548;2023-08-01T13:35:32;19.10;99.90
51902;DHT22;37929;53.218;6.548;2023-08-01T13:37:58;19.00;99.90
51902;DHT22;37929;53.218;6.548;2023-08-01T13:40:25;18.80;99.90
51902;DHT22;37929;53.218;6.548;2023-08-01T13:42:51;18.60;99.90
51902;DHT22;37929;53.218;6.548;2023-08-01T13:45:17;18.70;99.90
51902;DHT22;37929;53.218;6.548;2023-08-01T13:47:43;18.70;99.90
51902;DHT22;37929;53.218;6.548;2023-08-01T13:50:09;18.70;99.90
51902;DHT22;37929;53.218;6.548;2023-08-01T13:52:37;18.70;99.90
51902;DHT22;37929;53.218;6.548;2023-08-01T13:55:03;18.70;99.90
51902;DHT22;37929;53.218;6.548;2023-08-01T13:57:29;18.70;99.90
51902;DHT22;37929;53.218;6.548;2023-08-01T13:59:55;18.70;99.90
51902;DHT22;37929;53.218;6.548;2023-08-01T14:02:21;18.70;99.90
51902;DHT22;37929;53.218;6.548;2023-08-01T14:04:51;18.70;99.90
51902;DHT22;37929;53.218;6.548;2023-08-01T14:07:16;18.70;99.90
51902;DHT22;37929;53.218;6.548;2023-08-01T14:09:42;18.60;99.90
51902;DHT22;37929;53.218;6.548;2023-08-01T14:12:08;18.50;99.90
51902;DHT22;37929;53.218;6.548;2023-08-01T14:14:34;18.50;99.90
51902;DHT22;37929;53.218;6.548;2023-08-01T14:17:00;18.50;99.90
51902;DHT22;37929;53.218;6.548;2023-08-01T14:19:25;18.60;99.90
51902;DHT22;37929;53.218;6.548;2023-08-01T14:21:56;18.70;99.90
51902;DHT22;37929;53.218;6.548;2023-08-01T14:24:22;18.70;99.90
51902;DHT22;37929;53.218;6.548;2023-08-01T14:26:48;18.70;99.90
51902;DHT22;37929;53.218;6.548;2023-08-01T14:29:17;18.70;99.90
51902;DHT22;37929;53.218;6.548;2023-08-01T14:31:46;18.80;99.90
51902;DHT22;37929;53.218;6.548;2023-08-01T14:34:12;18.90;99.90
51902;DHT22;37929;53.218;6.548;2023-08-01T14:36:38;18.80;99.90
51902;DHT22;37929;53.218;6.548;2023-08-01T14:39:03;18.80;99.90
51902;DHT22;37929;53.218;6.548;2023-08-01T14:41:30;18.60;99.90
51902;DHT22;37929;53.218;6.548;2023-08-01T14:43:56;18.40;99.90
51902;DHT22;37929;53.218;6.548;2023-08-01T14:46:22;18.30;99.90
51902;DHT22;37929;53.218;6.548;2023-08-01T14:48:48;18.10;99.90
51902;DHT22;37929;53.218;6.548;2023-08-01T14:51:13;18.10;99.90
51902;DHT22;37929;53.218;6.548;2023-08-01T14:53:39;18.10;99.90
51902;DHT22;37929;53.218;6.548;2023-08-01T14:56:05;18.10;99.90
51902;DHT22;37929;53.218;6.548;2023-08-01T14:58:33;18.20;99.90
51902;DHT22;37929;53.218;6.548;2023-08-01T15:01:14;18.30;99.90
51902;DHT22;37929;53.218;6.548;2023-08-01T15:03:40;18.40;99.90
51902;DHT22;37929;53.218;6.548;2023-08-01T15:06:07;18.50;99.90
51902;DHT22;37929;53.218;6.548;2023-08-01T15:08:33;18.70;99.90
51902;DHT22;37929;53.218;6.548;2023-08-01T15:11:06;18.80;99.90
51902;DHT22;37929;53.218;6.548;2023-08-01T15:13:32;18.90;99.90
51902;DHT22;37929;53.218;6.548;2023-08-01T15:15:58;18.90;99.90
51902;DHT22;37929;53.218;6.548;2023-08-01T15:18:25;18.80;99.90
51902;DHT22;37929;53.218;6.548;2023-08-01T15:20:58;18.80;99.90
51902;DHT22;37929;53.218;6.548;2023-08-01T15:23:24;18.80;99.90
51902;DHT22;37929;53.218;6.548;2023-08-01T15:25:54;18.80;99.90
51902;DHT22;37929;53.218;6.548;2023-08-01T15:28:22;18.80;99.90
51902;DHT22;37929;53.218;6.548;2023-08-01T15:30:48;18.80;99.90